Tutti
Mersey Community Hospital Airport (Latrobe, TAS) YXLF Meteo
There is no TAF data available at YXLF. Showing TAF data for YDPO (4 mi N).
Previsione area Terminal DPO (nessun dato per YXLF)
| Date | Time (AEST) | Flight Rules | Wind Dir. | Speed | Type | Height AGL (ft) | Visibility | Remarks | ||||||
|---|---|---|---|---|---|---|---|---|---|---|---|---|---|---|
| 09-mag | 23:00 | VFR | 170° | 10 kt | Clouds and Visibility are OK | >= 6 miles | ||||||||
| 09-mag | 22:00 | VFR | 170° | 10 kt | Clouds and Visibility are OK | >= 6 miles | ||||||||
| 09-mag | 21:00 | VFR | 170° | 10 kt | Clouds and Visibility are OK | >= 6 miles | ||||||||
| 09-mag | 20:00 | VFR | 170° | 10 kt | Clouds and Visibility are OK | >= 6 miles | ||||||||
| 09-mag | 19:00 | VFR | 170° | 10 kt | Clouds and Visibility are OK | >= 6 miles | ||||||||
| 09-mag | 18:00 | VFR | 170° | 10 kt | Clouds and Visibility are OK | >= 6 miles | ||||||||
| 09-mag | 17:00 | VFR | 250° | 12 kt | Clouds and Visibility are OK | >= 6 miles | ||||||||
| 09-mag | 16:00 | VFR | 250° | 12 kt | Clouds and Visibility are OK | >= 6 miles | ||||||||
There is no METAR data available at YXLF. Showing METAR data for YDPO (4 mi N).
Storico METAR DPO recente (nessun dato per YXLF)
| Date | Time (AEST) | Flight Rules | Wind Dir. | Speed | Type | Height AGL (ft) | Visibility | Temp (°C) | Temp (°F) | Dew Point (°C) | Dew Point (°F) | Rel. Humid. | Pressure | Density Altitude | Remarks |
|---|---|---|---|---|---|---|---|---|---|---|---|---|---|---|---|
| 09-mag | 16:00 | VFR | 290° | 14 kt | 10000 meters | 19° | 66° | 11° | 51° | 60% | 1021 mb | 283 ft | |||
| 09-mag | 15:00 | VFR | 290° | 14 kt | 10000 meters | 20° | 68° | 8° | 46° | 46% | 1021 mb | 403 ft | |||
| 09-mag | 14:00 | VFR | 270° | 12 kt | 10000 meters | 22° | 71° | 5° | 41° | 33% | 1021 mb | 643 ft | |||
| 09-mag | 13:00 | VFR | 240° | 14 kt | 10000 meters | 22° | 71° | 2° | 35° | 27% | 1021 mb | 643 ft | |||
| 09-mag | 12:00 | VFR | 60° | 8 kt | 10000 meters | 17° | 62° | 12° | 53° | 72% | 1022 mb | 13 ft | |||
| 09-mag | 11:00 | VFR | 260° | 6 kt | 10000 meters | 18° | 64° | 11° | 51° | 64% | 1023 mb | 104 ft | |||
| 09-mag | 10:00 | VFR | Calm | 10000 meters | 15° | 59° | 9° | 48° | 67% | 1023 mb | -256 ft | ||||
| 09-mag | 09:00 | VFR | Calm | 10000 meters | 12° | 53° | 8° | 46° | 76% | 1023 mb | -616 ft | ||||
| 09-mag | 08:00 | VFR | 150° | 7 kt | 10000 meters | 7° | 44° | 5° | 41° | 87% | 1023 mb | -1.216 ft | |||
| 09-mag | 07:00 | VFR | 170° | 5 kt | 10000 meters | 6° | 42° | 4° | 39° | 87% | 1022 mb | -1.307 ft | |||
| 09-mag | 06:00 | VFR | 160° | 7 kt | 10000 meters | 5° | 41° | 4° | 39° | 93% | 1022 mb | -1.427 ft | |||
| 09-mag | 05:00 | VFR | 170° | 4 kt | 10000 meters | 5° | 41° | 4° | 39° | 93% | 1021 mb | -1.397 ft | |||
| 09-mag | 04:00 | VFR | 190° | 5 kt | 10000 meters | 6° | 42° | 4° | 39° | 87% | 1021 mb | -1.277 ft | |||
| 09-mag | 03:00 | VFR | 170° | 7 kt | 10000 meters | 6° | 42° | 4° | 39° | 87% | 1021 mb | -1.277 ft | |||
| 09-mag | 02:00 | VFR | 170° | 6 kt | 10000 meters | 5° | 41° | 4° | 39° | 93% | 1021 mb | -1.397 ft | |||
| 09-mag | 01:00 | VFR | 180° | 7 kt | 10000 meters | 6° | 42° | 4° | 39° | 87% | 1021 mb | -1.277 ft | |||
| 09-mag | 00:00 | VFR | 140° | 2 kt | 10000 meters | 7° | 44° | 5° | 41° | 87% | 1021 mb | -1.157 ft | |||
| 08-mag | 23:00 | VFR | Calm | 10000 meters | 7° | 44° | 4° | 39° | 81% | 1021 mb | -1.157 ft | ||||
| 08-mag | 22:00 | VFR | 210° | 5 kt | 10000 meters | 7° | 44° | 4° | 39° | 81% | 1021 mb | -1.157 ft | |||
| 08-mag | 21:00 | VFR | 310° | 5 kt | 10000 meters | 11° | 51° | 5° | 41° | 66% | 1020 mb | -648 ft | |||
| 08-mag | 20:00 | VFR | 210° | 9 kt | 10000 meters | 12° | 53° | 5° | 41° | 62% | 1020 mb | -528 ft | |||
| 08-mag | 19:00 | VFR | 210° | 10 kt | 10000 meters | 12° | 53° | 5° | 41° | 62% | 1020 mb | -528 ft | |||
| 08-mag | 18:00 | VFR | 250° | 9 kt | 10000 meters | 12° | 53° | 6° | 42° | 67% | 1019 mb | -498 ft | |||
| 08-mag | 17:00 | VFR | 240° | 15 kt | Scattered |
5.600 |
10000 meters | 14° | 57° | 7° | 44° | 63% | 1018 mb | -229 ft |
Accedi
| Il tuo browser non è supportato. fai l'upgrade del tuo browser |
